CheckWX is a tool to help pilots better visualize weather data.  It is not intended as a substitute for an official pre-flight weather briefing.

13:24:30 UTC

FQLC METAR
Lichinga Airport
Lichinga, Mozambique
Current

25 mins ago

FQLC 221300Z 23007KT 3000 TSRA BKN004 BKN015 FEW020CB BKN070 19/19 Q1019 RMK CB TO ALL/D TX24,5 TM 16,6
Observed
Feb-22 @ 13:00 UTC
Wind
  • 230° at 7 KTS
Visibility
2,993 meters
Flight Rules
LIFR
Conditions
Thunderstorm, Rain
Cloud Levels
  • Broken at 400' AGL
  • Broken at 1,500' AGL
  • Few at 2,000' AGL
  • Broken at 7,000' AGL
Temperature
19°C / 66°F
Dewpoint
19°C / 66°F
Humidity
100%
Altimeter
30.09" Hg
Pressure
1018.92 hPa
Previous

1 hour ago

FQLC 221200Z 01008KT 9999 TS SCT010 BKN015 FEW020CB BKN070 22/19 Q1019 RMK CB TO ALL/D
Observed
Feb-22 @ 12:00 UTC
Wind
  • 010° at 8 KTS
Visibility
10,000+ meters
Flight Rules
MVFR
Conditions
Thunderstorm
Cloud Levels
  • Scattered at 1,000' AGL
  • Broken at 1,500' AGL
  • Few at 2,000' AGL
  • Broken at 7,000' AGL
Temperature
22°C / 72°F
Dewpoint
19°C / 66°F
Humidity
83%
Altimeter
30.09" Hg
Pressure
1018.92 hPa
Previous

5 hours ago

FQLC 220800Z 06008KT 030V090 9999 FEW010 BKN015 FEW020CB BKN070 21/18 Q1022 RMK CB TO N/W/NW
Observed
Feb-22 @ 08:00 UTC
Wind
  • 060° at 8 KTS
Visibility
10,000+ meters
Flight Rules
MVFR
Cloud Levels
  • Few at 1,000' AGL
  • Broken at 1,500' AGL
  • Few at 2,000' AGL
  • Broken at 7,000' AGL
Temperature
21°C / 70°F
Dewpoint
18°C / 64°F
Humidity
83%
Altimeter
30.18" Hg
Pressure
1021.92 hPa